sensor_id;sensor_type;location;lat;lon;timestamp;pressure;altitude;pressure_sealevel;temperature;humidity
57024;BME280;42916;54.346;18.562;2023-03-13T00:00:26;99542.96;;;-1.73;73.78
57024;BME280;42916;54.346;18.562;2023-03-13T00:03:13;99538.95;;;-1.74;73.81
57024;BME280;42916;54.346;18.562;2023-03-13T00:05:40;99526.47;;;-1.73;73.96
57024;BME280;42916;54.346;18.562;2023-03-13T00:08:07;99512.32;;;-1.74;73.99
57024;BME280;42916;54.346;18.562;2023-03-13T00:10:38;99511.52;;;-1.75;74.04
57024;BME280;42916;54.346;18.562;2023-03-13T00:13:04;99509.39;;;-1.77;74.08
57024;BME280;42916;54.346;18.562;2023-03-13T00:15:32;99514.50;;;-1.80;74.15
57024;BME280;42916;54.346;18.562;2023-03-13T00:17:59;99512.98;;;-1.82;74.06
57024;BME280;42916;54.346;18.562;2023-03-13T00:20:26;99504.42;;;-1.84;74.32
57024;BME280;42916;54.346;18.562;2023-03-13T00:22:52;99500.85;;;-1.85;74.20
57024;BME280;42916;54.346;18.562;2023-03-13T00:25:19;99505.54;;;-1.85;74.50
57024;BME280;42916;54.346;18.562;2023-03-13T00:27:46;99506.92;;;-1.83;74.60
57024;BME280;42916;54.346;18.562;2023-03-13T00:30:13;99500.80;;;-1.81;74.72
57024;BME280;42916;54.346;18.562;2023-03-13T00:32:43;99499.95;;;-1.80;74.95
57024;BME280;42916;54.346;18.562;2023-03-13T00:35:12;99503.84;;;-1.77;75.31
57024;BME280;42916;54.346;18.562;2023-03-13T00:37:39;99507.92;;;-1.76;75.41
57024;BME280;42916;54.346;18.562;2023-03-13T00:40:06;99506.41;;;-1.74;75.66
57024;BME280;42916;54.346;18.562;2023-03-13T00:42:34;99507.79;;;-1.71;75.69
57024;BME280;42916;54.346;18.562;2023-03-13T00:45:02;99506.31;;;-1.68;75.80
57024;BME280;42916;54.346;18.562;2023-03-13T00:47:29;99510.40;;;-1.66;75.83
57024;BME280;42916;54.346;18.562;2023-03-13T00:49:56;99509.95;;;-1.64;76.10
57024;BME280;42916;54.346;18.562;2023-03-13T00:52:22;99503.45;;;-1.61;76.11
57024;BME280;42916;54.346;18.562;2023-03-13T00:54:50;99493.72;;;-1.59;75.91
57024;BME280;42916;54.346;18.562;2023-03-13T00:57:17;99481.52;;;-1.58;75.82
57024;BME280;42916;54.346;18.562;2023-03-13T00:59:44;99473.88;;;-1.57;76.03
57024;BME280;42916;54.346;18.562;2023-03-13T01:02:10;99465.31;;;-1.55;76.18
57024;BME280;42916;54.346;18.562;2023-03-13T01:04:37;99459.16;;;-1.53;76.26
57024;BME280;42916;54.346;18.562;2023-03-13T01:07:04;99452.73;;;-1.49;76.40
57024;BME280;42916;54.346;18.562;2023-03-13T01:09:31;99439.70;;;-1.44;76.38
57024;BME280;42916;54.346;18.562;2023-03-13T01:11:57;99429.16;;;-1.40;76.49
57024;BME280;42916;54.346;18.562;2023-03-13T01:14:24;99433.66;;;-1.35;76.45
57024;BME280;42916;54.346;18.562;2023-03-13T01:16:53;99429.43;;;-1.31;76.64
57024;BME280;42916;54.346;18.562;2023-03-13T01:19:20;99415.78;;;-1.28;76.87
57024;BME280;42916;54.346;18.562;2023-03-13T01:21:47;99411.79;;;-1.25;76.86
57024;BME280;42916;54.346;18.562;2023-03-13T01:24:14;99404.58;;;-1.23;76.83
57024;BME280;42916;54.346;18.562;2023-03-13T01:26:43;99402.65;;;-1.22;76.82
57024;BME280;42916;54.346;18.562;2023-03-13T01:29:10;99406.96;;;-1.21;77.01
57024;BME280;42916;54.346;18.562;2023-03-13T01:31:36;99408.48;;;-1.19;77.02
57024;BME280;42916;54.346;18.562;2023-03-13T01:34:06;99403.52;;;-1.18;77.19
57024;BME280;42916;54.346;18.562;2023-03-13T01:36:35;99395.27;;;-1.20;77.30
57024;BME280;42916;54.346;18.562;2023-03-13T01:39:02;99390.58;;;-1.20;77.37
57024;BME280;42916;54.346;18.562;2023-03-13T01:41:30;99382.48;;;-1.20;77.24
57024;BME280;42916;54.346;18.562;2023-03-13T01:43:57;99374.31;;;-1.21;77.10
57024;BME280;42916;54.346;18.562;2023-03-13T01:46:29;99368.37;;;-1.20;77.21
57024;BME280;42916;54.346;18.562;2023-03-13T01:49:33;99365.89;;;-1.20;77.35
57024;BME280;42916;54.346;18.562;2023-03-13T01:52:25;99360.82;;;-1.19;77.63
57024;BME280;42916;54.346;18.562;2023-03-13T01:55:07;99362.30;;;-1.20;77.74
57024;BME280;42916;54.346;18.562;2023-03-13T01:57:42;99367.47;;;-1.20;78.00
57024;BME280;42916;54.346;18.562;2023-03-13T02:00:13;99361.52;;;-1.19;78.09
57024;BME280;42916;54.346;18.562;2023-03-13T02:02:45;99353.11;;;-1.20;78.14
57024;BME280;42916;54.346;18.562;2023-03-13T02:05:15;99348.79;;;-1.21;78.13
57024;BME280;42916;54.346;18.562;2023-03-13T02:07:47;99351.04;;;-1.22;78.34
57024;BME280;42916;54.346;18.562;2023-03-13T02:10:17;99345.37;;;-1.22;78.43
57024;BME280;42916;54.346;18.562;2023-03-13T02:12:44;99343.20;;;-1.22;78.54
57024;BME280;42916;54.346;18.562;2023-03-13T02:15:19;99346.01;;;-1.20;78.49
57024;BME280;42916;54.346;18.562;2023-03-13T02:17:47;99357.83;;;-1.15;78.75
57024;BME280;42916;54.346;18.562;2023-03-13T02:20:17;99357.41;;;-1.11;78.90
57024;BME280;42916;54.346;18.562;2023-03-13T02:30:26;99355.20;;;-0.97;79.36
57024;BME280;42916;54.346;18.562;2023-03-13T02:32:53;99355.96;;;-0.95;79.51
57024;BME280;42916;54.346;18.562;2023-03-13T02:35:22;99354.70;;;-0.93;79.46
57024;BME280;42916;54.346;18.562;2023-03-13T02:37:53;99361.11;;;-0.92;79.58
57024;BME280;42916;54.346;18.562;2023-03-13T02:40:29;99357.83;;;-0.90;79.49
57024;BME280;42916;54.346;18.562;2023-03-13T02:42:59;99359.92;;;-0.88;79.75
57024;BME280;42916;54.346;18.562;2023-03-13T02:45:27;99362.18;;;-0.85;79.61
57024;BME280;42916;54.346;18.562;2023-03-13T02:47:54;99362.13;;;-0.81;79.71
57024;BME280;42916;54.346;18.562;2023-03-13T02:50:20;99352.65;;;-0.78;79.61
57024;BME280;42916;54.346;18.562;2023-03-13T02:52:54;99351.45;;;-0.74;79.78
57024;BME280;42916;54.346;18.562;2023-03-13T02:55:29;99350.66;;;-0.71;79.81
57024;BME280;42916;54.346;18.562;2023-03-13T02:57:56;99345.16;;;-0.69;79.97
57024;BME280;42916;54.346;18.562;2023-03-13T03:00:23;99344.45;;;-0.66;80.22
57024;BME280;42916;54.346;18.562;2023-03-13T03:02:52;99338.09;;;-0.64;80.11
57024;BME280;42916;54.346;18.562;2023-03-13T03:05:20;99335.20;;;-0.62;80.18
57024;BME280;42916;54.346;18.562;2023-03-13T03:07:49;99331.66;;;-0.61;80.35
57024;BME280;42916;54.346;18.562;2023-03-13T03:10:17;99330.63;;;-0.60;80.39
57024;BME280;42916;54.346;18.562;2023-03-13T03:12:44;99317.90;;;-0.61;80.35
57024;BME280;42916;54.346;18.562;2023-03-13T03:15:11;99304.50;;;-0.60;80.31
57024;BME280;42916;54.346;18.562;2023-03-13T03:17:42;99300.46;;;-0.58;80.38
57024;BME280;42916;54.346;18.562;2023-03-13T03:20:09;99302.89;;;-0.56;80.39
57024;BME280;42916;54.346;18.562;2023-03-13T03:22:41;99308.75;;;-0.52;80.72
57024;BME280;42916;54.346;18.562;2023-03-13T03:25:08;99304.43;;;-0.48;80.75
57024;BME280;42916;54.346;18.562;2023-03-13T03:27:36;99297.42;;;-0.44;81.07
57024;BME280;42916;54.346;18.562;2023-03-13T03:30:05;99294.09;;;-0.42;81.16
57024;BME280;42916;54.346;18.562;2023-03-13T03:32:32;99286.23;;;-0.40;81.23
57024;BME280;42916;54.346;18.562;2023-03-13T03:34:59;99279.15;;;-0.39;81.26
57024;BME280;42916;54.346;18.562;2023-03-13T03:37:26;99276.80;;;-0.37;81.57
57024;BME280;42916;54.346;18.562;2023-03-13T03:39:53;99269.52;;;-0.36;81.52
57024;BME280;42916;54.346;18.562;2023-03-13T03:42:20;99268.73;;;-0.36;81.64
57024;BME280;42916;54.346;18.562;2023-03-13T03:44:47;99263.55;;;-0.33;81.62
57024;BME280;42916;54.346;18.562;2023-03-13T03:47:14;99261.98;;;-0.31;81.65
57024;BME280;42916;54.346;18.562;2023-03-13T03:49:43;99269.25;;;-0.28;81.74
57024;BME280;42916;54.346;18.562;2023-03-13T03:52:10;99263.67;;;-0.24;81.96
57024;BME280;42916;54.346;18.562;2023-03-13T03:54:39;99251.86;;;-0.22;82.16
57024;BME280;42916;54.346;18.562;2023-03-13T03:57:06;99245.08;;;-0.21;82.33
57024;BME280;42916;54.346;18.562;2023-03-13T03:59:33;99234.51;;;-0.20;82.39
57024;BME280;42916;54.346;18.562;2023-03-13T04:02:06;99233.80;;;-0.20;82.47
57024;BME280;42916;54.346;18.562;2023-03-13T04:04:34;99232.33;;;-0.21;82.62
57024;BME280;42916;54.346;18.562;2023-03-13T04:07:14;99231.59;;;-0.21;82.76
57024;BME280;42916;54.346;18.562;2023-03-13T04:09:41;99235.14;;;-0.19;82.89
57024;BME280;42916;54.346;18.562;2023-03-13T04:12:11;99239.83;;;-0.16;83.05
57024;BME280;42916;54.346;18.562;2023-03-13T04:14:42;99231.89;;;-0.13;83.11
57024;BME280;42916;54.346;18.562;2023-03-13T04:17:12;99227.05;;;-0.10;83.30
57024;BME280;42916;54.346;18.562;2023-03-13T04:19:40;99215.48;;;-0.09;83.48
57024;BME280;42916;54.346;18.562;2023-03-13T04:22:07;99216.39;;;-0.09;83.58
57024;BME280;42916;54.346;18.562;2023-03-13T04:24:36;99209.41;;;-0.09;83.70
57024;BME280;42916;54.346;18.562;2023-03-13T04:27:03;99215.15;;;-0.08;83.85
57024;BME280;42916;54.346;18.562;2023-03-13T04:29:33;99207.25;;;-0.06;83.85
57024;BME280;42916;54.346;18.562;2023-03-13T04:32:23;99193.79;;;-0.04;84.19
57024;BME280;42916;54.346;18.562;2023-03-13T04:35:23;99186.04;;;-0.01;84.35
57024;BME280;42916;54.346;18.562;2023-03-13T04:37:58;99184.20;;;0.02;84.46
57024;BME280;42916;54.346;18.562;2023-03-13T04:40:49;99181.03;;;0.03;84.68
57024;BME280;42916;54.346;18.562;2023-03-13T04:43:36;99186.97;;;0.05;84.97
57024;BME280;42916;54.346;18.562;2023-03-13T04:46:09;99184.06;;;0.06;84.89
57024;BME280;42916;54.346;18.562;2023-03-13T04:48:36;99178.27;;;0.06;85.01
57024;BME280;42916;54.346;18.562;2023-03-13T04:51:21;99179.35;;;0.07;84.82
57024;BME280;42916;54.346;18.562;2023-03-13T04:54:12;99176.44;;;0.10;85.12
57024;BME280;42916;54.346;18.562;2023-03-13T04:56:52;99169.67;;;0.14;85.36
57024;BME280;42916;54.346;18.562;2023-03-13T04:59:54;99164.16;;;0.19;85.75
57024;BME280;42916;54.346;18.562;2023-03-13T05:02:33;99155.87;;;0.22;85.89
57024;BME280;42916;54.346;18.562;2023-03-13T05:05:12;99147.00;;;0.24;86.13
57024;BME280;42916;54.346;18.562;2023-03-13T05:08:15;99146.38;;;0.25;86.53
57024;BME280;42916;54.346;18.562;2023-03-13T05:11:08;99140.73;;;0.27;86.70
57024;BME280;42916;54.346;18.562;2023-03-13T05:13:47;99136.30;;;0.29;86.68
57024;BME280;42916;54.346;18.562;2023-03-13T05:16:49;99136.90;;;0.31;87.08
57024;BME280;42916;54.346;18.562;2023-03-13T05:19:45;99126.23;;;0.37;87.08
57024;BME280;42916;54.346;18.562;2023-03-13T05:22:29;99117.09;;;0.43;87.32
57024;BME280;42916;54.346;18.562;2023-03-13T05:25:14;99119.61;;;0.49;87.46
57024;BME280;42916;54.346;18.562;2023-03-13T05:28:04;99118.23;;;0.56;87.83
57024;BME280;42916;54.346;18.562;2023-03-13T05:30:44;99116.07;;;0.62;88.19
57024;BME280;42916;54.346;18.562;2023-03-13T05:33:31;99119.39;;;0.68;88.53
57024;BME280;42916;54.346;18.562;2023-03-13T05:36:11;99119.02;;;0.71;88.83
57024;BME280;42916;54.346;18.562;2023-03-13T05:38:44;99109.19;;;0.74;89.09
57024;BME280;42916;54.346;18.562;2023-03-13T05:41:21;99110.33;;;0.79;89.07
57024;BME280;42916;54.346;18.562;2023-03-13T05:44:15;99110.49;;;0.84;89.55
57024;BME280;42916;54.346;18.562;2023-03-13T05:47:00;99110.89;;;0.88;89.77
57024;BME280;42916;54.346;18.562;2023-03-13T05:49:45;99104.02;;;0.94;89.78
57024;BME280;42916;54.346;18.562;2023-03-13T05:52:12;99100.52;;;0.98;90.07
57024;BME280;42916;54.346;18.562;2023-03-13T05:54:39;99094.06;;;1.01;90.38
57024;BME280;42916;54.346;18.562;2023-03-13T05:57:43;99094.68;;;1.04;90.64
57024;BME280;42916;54.346;18.562;2023-03-13T06:00:43;99093.61;;;1.07;90.78
57024;BME280;42916;54.346;18.562;2023-03-13T06:03:28;99091.33;;;1.10;90.87
57024;BME280;42916;54.346;18.562;2023-03-13T06:05:57;99087.38;;;1.13;90.92
57024;BME280;42916;54.346;18.562;2023-03-13T06:08:32;99084.33;;;1.18;91.18
57024;BME280;42916;54.346;18.562;2023-03-13T06:11:00;99080.48;;;1.22;91.53
57024;BME280;42916;54.346;18.562;2023-03-13T06:13:28;99076.39;;;1.26;91.82
57024;BME280;42916;54.346;18.562;2023-03-13T06:15:58;99074.40;;;1.30;91.84
57024;BME280;42916;54.346;18.562;2023-03-13T06:18:38;99071.19;;;1.33;92.36
57024;BME280;42916;54.346;18.562;2023-03-13T06:21:05;99065.05;;;1.36;92.37
57024;BME280;42916;54.346;18.562;2023-03-13T06:23:32;99062.90;;;1.39;92.57
57024;BME280;42916;54.346;18.562;2023-03-13T06:25:59;99056.01;;;1.42;92.82
57024;BME280;42916;54.346;18.562;2023-03-13T06:28:26;99055.64;;;1.47;92.60
57024;BME280;42916;54.346;18.562;2023-03-13T06:30:54;99048.79;;;1.51;93.09
57024;BME280;42916;54.346;18.562;2023-03-13T06:33:20;99045.62;;;1.56;92.98
57024;BME280;42916;54.346;18.562;2023-03-13T06:35:47;99042.58;;;1.58;92.92
57024;BME280;42916;54.346;18.562;2023-03-13T06:38:14;99038.82;;;1.60;93.27
57024;BME280;42916;54.346;18.562;2023-03-13T06:40:41;99035.39;;;1.60;93.43
57024;BME280;42916;54.346;18.562;2023-03-13T06:43:07;99030.27;;;1.61;93.41
57024;BME280;42916;54.346;18.562;2023-03-13T06:45:35;99028.26;;;1.62;93.64
57024;BME280;42916;54.346;18.562;2023-03-13T06:48:03;99025.30;;;1.64;94.30
57024;BME280;42916;54.346;18.562;2023-03-13T06:50:29;99027.77;;;1.69;94.62
57024;BME280;42916;54.346;18.562;2023-03-13T06:52:56;99021.98;;;1.75;94.88
57024;BME280;42916;54.346;18.562;2023-03-13T06:55:23;99011.61;;;1.81;94.81
57024;BME280;42916;54.346;18.562;2023-03-13T06:57:51;99010.06;;;1.84;95.44
57024;BME280;42916;54.346;18.562;2023-03-13T07:00:19;99004.09;;;1.86;95.42
57024;BME280;42916;54.346;18.562;2023-03-13T07:02:46;99002.15;;;1.90;95.78
57024;BME280;42916;54.346;18.562;2023-03-13T07:05:13;99000.49;;;1.95;95.78
57024;BME280;42916;54.346;18.562;2023-03-13T07:07:40;99001.80;;;2.00;95.80
57024;BME280;42916;54.346;18.562;2023-03-13T07:10:08;98998.98;;;2.03;95.66
57024;BME280;42916;54.346;18.562;2023-03-13T07:12:36;99003.48;;;2.08;95.79
57024;BME280;42916;54.346;18.562;2023-03-13T07:15:04;99001.91;;;2.14;95.61
57024;BME280;42916;54.346;18.562;2023-03-13T07:17:37;99000.88;;;2.19;95.91
57024;BME280;42916;54.346;18.562;2023-03-13T07:20:04;98996.59;;;2.26;95.92
57024;BME280;42916;54.346;18.562;2023-03-13T07:22:32;98993.77;;;2.31;95.87
57024;BME280;42916;54.346;18.562;2023-03-13T07:24:59;98990.23;;;2.37;96.19
57024;BME280;42916;54.346;18.562;2023-03-13T07:27:26;98986.30;;;2.43;96.46
57024;BME280;42916;54.346;18.562;2023-03-13T07:29:53;98972.67;;;2.48;96.16
57024;BME280;42916;54.346;18.562;2023-03-13T07:32:20;98966.29;;;2.53;96.10
57024;BME280;42916;54.346;18.562;2023-03-13T07:34:47;98964.85;;;2.62;96.36
57024;BME280;42916;54.346;18.562;2023-03-13T07:37:15;98966.77;;;2.73;96.46
57024;BME280;42916;54.346;18.562;2023-03-13T07:39:42;98957.83;;;2.82;96.07
57024;BME280;42916;54.346;18.562;2023-03-13T07:42:10;98955.11;;;2.89;96.09
57024;BME280;42916;54.346;18.562;2023-03-13T07:44:37;98947.21;;;2.95;96.23
57024;BME280;42916;54.346;18.562;2023-03-13T07:47:04;98937.32;;;2.98;96.33
57024;BME280;42916;54.346;18.562;2023-03-13T07:49:32;98932.84;;;3.02;96.26
57024;BME280;42916;54.346;18.562;2023-03-13T07:52:01;98926.26;;;3.10;96.44
57024;BME280;42916;54.346;18.562;2023-03-13T07:54:28;98929.52;;;3.17;96.25
57024;BME280;42916;54.346;18.562;2023-03-13T07:56:55;98925.87;;;3.23;96.54
57024;BME280;42916;54.346;18.562;2023-03-13T07:59:21;98929.13;;;3.31;96.39
57024;BME280;42916;54.346;18.562;2023-03-13T08:01:48;98928.23;;;3.40;96.40
57024;BME280;42916;54.346;18.562;2023-03-13T08:04:15;98924.34;;;3.49;96.44
57024;BME280;42916;54.346;18.562;2023-03-13T08:06:42;98921.06;;;3.55;96.32
57024;BME280;42916;54.346;18.562;2023-03-13T08:09:08;98921.15;;;3.62;96.08
57024;BME280;42916;54.346;18.562;2023-03-13T08:11:37;98919.11;;;3.64;95.97
57024;BME280;42916;54.346;18.562;2023-03-13T08:14:06;98926.40;;;3.67;95.85
57024;BME280;42916;54.346;18.562;2023-03-13T08:16:34;98920.84;;;3.72;95.66
57024;BME280;42916;54.346;18.562;2023-03-13T08:19:02;98918.46;;;3.75;95.77
57024;BME280;42916;54.346;18.562;2023-03-13T08:21:34;98903.76;;;3.82;95.69
57024;BME280;42916;54.346;18.562;2023-03-13T08:24:03;98898.64;;;3.89;95.96
57024;BME280;42916;54.346;18.562;2023-03-13T08:26:34;98901.25;;;3.95;96.12
57024;BME280;42916;54.346;18.562;2023-03-13T08:29:10;98898.44;;;4.04;96.16
57024;BME280;42916;54.346;18.562;2023-03-13T08:31:45;98901.18;;;4.11;96.33
57024;BME280;42916;54.346;18.562;2023-03-13T08:34:14;98897.48;;;4.16;96.03
57024;BME280;42916;54.346;18.562;2023-03-13T08:36:41;98894.40;;;4.20;95.72
57024;BME280;42916;54.346;18.562;2023-03-13T08:39:13;98889.19;;;4.21;95.62
57024;BME280;42916;54.346;18.562;2023-03-13T08:41:40;98884.48;;;4.23;95.95
57024;BME280;42916;54.346;18.562;2023-03-13T08:44:10;98873.31;;;4.25;95.90
57024;BME280;42916;54.346;18.562;2023-03-13T08:46:37;98871.11;;;4.25;96.01
57024;BME280;42916;54.346;18.562;2023-03-13T08:49:05;98867.89;;;4.26;95.98
57024;BME280;42916;54.346;18.562;2023-03-13T08:51:33;98865.71;;;4.24;96.17
57024;BME280;42916;54.346;18.562;2023-03-13T08:54:01;98862.85;;;4.23;96.35
57024;BME280;42916;54.346;18.562;2023-03-13T08:56:30;98858.08;;;4.25;96.20
57024;BME280;42916;54.346;18.562;2023-03-13T08:59:00;98854.67;;;4.29;96.12
57024;BME280;42916;54.346;18.562;2023-03-13T09:01:31;98847.49;;;4.31;95.99
57024;BME280;42916;54.346;18.562;2023-03-13T09:03:59;98847.05;;;4.31;96.09
57024;BME280;42916;54.346;18.562;2023-03-13T09:06:26;98841.73;;;4.28;96.16
57024;BME280;42916;54.346;18.562;2023-03-13T09:08:55;98840.25;;;4.28;96.29
57024;BME280;42916;54.346;18.562;2023-03-13T09:11:22;98831.63;;;4.28;96.32
57024;BME280;42916;54.346;18.562;2023-03-13T09:13:50;98828.86;;;4.31;96.16
57024;BME280;42916;54.346;18.562;2023-03-13T09:16:19;98827.70;;;4.34;96.38
57024;BME280;42916;54.346;18.562;2023-03-13T09:18:46;98828.95;;;4.35;96.23
57024;BME280;42916;54.346;18.562;2023-03-13T09:21:16;98820.20;;;4.31;96.24
57024;BME280;42916;54.346;18.562;2023-03-13T09:23:43;98820.50;;;4.30;96.35
57024;BME280;42916;54.346;18.562;2023-03-13T09:26:13;98815.58;;;4.33;96.86
57024;BME280;42916;54.346;18.562;2023-03-13T09:28:40;98809.80;;;4.36;96.69
57024;BME280;42916;54.346;18.562;2023-03-13T09:33:41;98803.42;;;4.40;96.75
57024;BME280;42916;54.346;18.562;2023-03-13T09:36:08;98800.33;;;4.42;96.69
57024;BME280;42916;54.346;18.562;2023-03-13T09:38:36;98796.07;;;4.48;97.00
57024;BME280;42916;54.346;18.562;2023-03-13T09:41:23;98788.65;;;4.54;96.92
57024;BME280;42916;54.346;18.562;2023-03-13T09:46:38;98783.80;;;4.73;97.52
57024;BME280;42916;54.346;18.562;2023-03-13T09:51:42;98773.68;;;4.95;97.70
57024;BME280;42916;54.346;18.562;2023-03-13T09:56:55;98764.50;;;5.17;97.28
57024;BME280;42916;54.346;18.562;2023-03-13T09:59:29;98764.80;;;5.23;97.05
57024;BME280;42916;54.346;18.562;2023-03-13T10:01:59;98758.29;;;5.29;96.97
57024;BME280;42916;54.346;18.562;2023-03-13T10:04:46;98754.98;;;5.30;96.55
57024;BME280;42916;54.346;18.562;2023-03-13T10:07:15;98751.41;;;5.25;96.59
57024;BME280;42916;54.346;18.562;2023-03-13T10:09:42;98746.73;;;5.26;96.84
57024;BME280;42916;54.346;18.562;2023-03-13T10:14:42;98732.45;;;5.30;96.52
57024;BME280;42916;54.346;18.562;2023-03-13T10:17:31;98729.88;;;5.32;96.75
57024;BME280;42916;54.346;18.562;2023-03-13T10:20:20;98724.92;;;5.36;96.79
57024;BME280;42916;54.346;18.562;2023-03-13T10:25:39;98716.38;;;5.39;97.05
57024;BME280;42916;54.346;18.562;2023-03-13T10:28:24;98715.51;;;5.37;97.40
57024;BME280;42916;54.346;18.562;2023-03-13T10:31:03;98709.20;;;5.38;97.47
57024;BME280;42916;54.346;18.562;2023-03-13T10:33:31;98705.64;;;5.38;97.46
57024;BME280;42916;54.346;18.562;2023-03-13T10:36:10;98702.83;;;5.39;97.55
57024;BME280;42916;54.346;18.562;2023-03-13T10:38:50;98694.05;;;5.41;97.60
57024;BME280;42916;54.346;18.562;2023-03-13T10:41:27;98689.52;;;5.41;97.73
57024;BME280;42916;54.346;18.562;2023-03-13T10:44:03;98684.95;;;5.46;97.96
57024;BME280;42916;54.346;18.562;2023-03-13T10:46:31;98676.06;;;5.46;98.10
57024;BME280;42916;54.346;18.562;2023-03-13T10:48:59;98669.42;;;5.46;98.36
57024;BME280;42916;54.346;18.562;2023-03-13T10:51:33;98672.97;;;5.44;98.50
57024;BME280;42916;54.346;18.562;2023-03-13T10:54:05;98658.70;;;5.44;98.70
57024;BME280;42916;54.346;18.562;2023-03-13T10:56:38;98649.30;;;5.43;98.64
57024;BME280;42916;54.346;18.562;2023-03-13T10:59:05;98641.65;;;5.43;98.69
57024;BME280;42916;54.346;18.562;2023-03-13T11:01:43;98624.17;;;5.44;98.72
57024;BME280;42916;54.346;18.562;2023-03-13T11:04:27;98628.77;;;5.45;98.97
57024;BME280;42916;54.346;18.562;2023-03-13T11:07:14;98622.02;;;5.49;99.31
57024;BME280;42916;54.346;18.562;2023-03-13T11:09:41;98619.23;;;5.54;99.44
57024;BME280;42916;54.346;18.562;2023-03-13T11:12:13;98612.23;;;5.58;99.72
57024;BME280;42916;54.346;18.562;2023-03-13T11:14:43;98606.03;;;5.60;99.98
57024;BME280;42916;54.346;18.562;2023-03-13T11:32:42;98556.80;;;5.72;100.00
57024;BME280;42916;54.346;18.562;2023-03-13T11:35:16;98549.40;;;5.71;100.00
57024;BME280;42916;54.346;18.562;2023-03-13T11:37:45;98544.27;;;5.68;100.00
57024;BME280;42916;54.346;18.562;2023-03-13T11:48:08;98530.02;;;5.65;100.00
57024;BME280;42916;54.346;18.562;2023-03-13T11:50:50;98527.11;;;5.64;100.00
57024;BME280;42916;54.346;18.562;2023-03-13T11:53:35;98520.57;;;5.64;100.00
57024;BME280;42916;54.346;18.562;2023-03-13T11:56:07;98510.19;;;5.66;100.00
57024;BME280;42916;54.346;18.562;2023-03-13T12:01:12;98493.29;;;5.66;100.00
57024;BME280;42916;54.346;18.562;2023-03-13T12:03:50;98482.66;;;5.65;100.00
57024;BME280;42916;54.346;18.562;2023-03-13T12:08:47;98477.15;;;5.63;100.00
57024;BME280;42916;54.346;18.562;2023-03-13T12:13:45;98470.79;;;5.62;100.00
57024;BME280;42916;54.346;18.562;2023-03-13T12:16:17;98462.06;;;5.62;100.00
57024;BME280;42916;54.346;18.562;2023-03-13T12:18:45;98450.66;;;5.64;100.00
57024;BME280;42916;54.346;18.562;2023-03-13T12:21:20;98430.20;;;5.69;100.00
57024;BME280;42916;54.346;18.562;2023-03-13T12:24:50;98417.80;;;5.71;100.00
57024;BME280;42916;54.346;18.562;2023-03-13T12:26:46;98418.13;;;5.71;100.00
57024;BME280;42916;54.346;18.562;2023-03-13T12:29:15;98409.54;;;5.72;100.00
57024;BME280;42916;54.346;18.562;2023-03-13T12:31:57;98402.62;;;5.76;100.00
57024;BME280;42916;54.346;18.562;2023-03-13T12:37:11;98392.16;;;5.78;100.00
57024;BME280;42916;54.346;18.562;2023-03-13T12:42:16;98385.41;;;5.81;100.00
57024;BME280;42916;54.346;18.562;2023-03-13T12:44:44;98389.40;;;5.83;100.00
57024;BME280;42916;54.346;18.562;2023-03-13T12:52:11;98375.73;;;5.87;100.00
57024;BME280;42916;54.346;18.562;2023-03-13T12:59:48;98349.29;;;5.91;100.00
57024;BME280;42916;54.346;18.562;2023-03-13T13:02:27;98347.66;;;5.95;100.00
57024;BME280;42916;54.346;18.562;2023-03-13T13:04:56;98340.98;;;5.99;100.00
57024;BME280;42916;54.346;18.562;2023-03-13T13:07:25;98346.62;;;6.04;100.00
57024;BME280;42916;54.346;18.562;2023-03-13T13:10:12;98337.85;;;6.08;100.00
57024;BME280;42916;54.346;18.562;2023-03-13T13:12:43;98333.63;;;6.12;100.00
57024;BME280;42916;54.346;18.562;2023-03-13T13:20:30;98319.79;;;6.17;100.00
57024;BME280;42916;54.346;18.562;2023-03-13T13:25:42;98307.71;;;6.23;100.00
57024;BME280;42916;54.346;18.562;2023-03-13T13:28:10;98319.38;;;6.24;100.00
57024;BME280;42916;54.346;18.562;2023-03-13T13:30:38;98307.33;;;6.24;100.00
57024;BME280;42916;54.346;18.562;2023-03-13T13:33:32;98306.30;;;6.24;100.00
57024;BME280;42916;54.346;18.562;2023-03-13T13:38:38;98293.88;;;6.27;100.00
57024;BME280;42916;54.346;18.562;2023-03-13T13:46:03;98286.97;;;6.35;100.00
57024;BME280;42916;54.346;18.562;2023-03-13T13:48:36;98282.67;;;6.39;100.00
57024;BME280;42916;54.346;18.562;2023-03-13T14:01:30;98265.98;;;6.62;100.00
57024;BME280;42916;54.346;18.562;2023-03-13T14:04:05;98256.80;;;6.69;100.00
57024;BME280;42916;54.346;18.562;2023-03-13T14:06:36;98255.98;;;6.76;100.00
57024;BME280;42916;54.346;18.562;2023-03-13T14:09:13;98250.70;;;6.83;100.00
57024;BME280;42916;54.346;18.562;2023-03-13T14:11:41;98252.26;;;6.89;100.00
57024;BME280;42916;54.346;18.562;2023-03-13T14:14:18;98246.15;;;6.95;100.00
57024;BME280;42916;54.346;18.562;2023-03-13T14:16:45;98246.83;;;7.00;100.00
57024;BME280;42916;54.346;18.562;2023-03-13T14:19:23;98246.98;;;7.05;100.00
57024;BME280;42916;54.346;18.562;2023-03-13T14:21:55;98243.89;;;7.12;100.00
57024;BME280;42916;54.346;18.562;2023-03-13T14:24:22;98237.50;;;7.18;100.00
57024;BME280;42916;54.346;18.562;2023-03-13T14:26:49;98237.39;;;7.24;100.00
57024;BME280;42916;54.346;18.562;2023-03-13T14:29:16;98232.59;;;7.28;100.00
57024;BME280;42916;54.346;18.562;2023-03-13T14:31:49;98228.98;;;7.31;100.00
57024;BME280;42916;54.346;18.562;2023-03-13T14:34:16;98223.77;;;7.34;100.00
57024;BME280;42916;54.346;18.562;2023-03-13T14:36:47;98220.15;;;7.38;100.00
57024;BME280;42916;54.346;18.562;2023-03-13T14:42:00;98211.34;;;7.47;100.00
57024;BME280;42916;54.346;18.562;2023-03-13T14:44:27;98215.30;;;7.54;100.00
57024;BME280;42916;54.346;18.562;2023-03-13T14:47:00;98218.58;;;7.61;100.00
57024;BME280;42916;54.346;18.562;2023-03-13T14:49:29;98215.57;;;7.64;100.00
57024;BME280;42916;54.346;18.562;2023-03-13T14:54:26;98192.19;;;7.65;100.00
57024;BME280;42916;54.346;18.562;2023-03-13T14:57:03;98224.50;;;7.64;100.00
57024;BME280;42916;54.346;18.562;2023-03-13T14:59:30;98215.30;;;7.64;100.00